createdAt,value
2022-10-25T00:00:46.679Z,9.10
2022-10-25T00:03:14.746Z,8.40
2022-10-25T00:05:43.278Z,9.27
2022-10-25T00:08:12.773Z,9.60
2022-10-25T00:10:40.972Z,8.67
2022-10-25T00:13:09.092Z,9.57
2022-10-25T00:15:37.147Z,10.10
2022-10-25T00:18:05.759Z,10.60
2022-10-25T00:20:33.827Z,10.47
2022-10-25T00:23:01.921Z,9.43
2022-10-25T00:25:31.630Z,9.50
2022-10-25T00:27:59.744Z,8.33
2022-10-25T00:30:27.823Z,9.27
2022-10-25T00:32:55.889Z,9.37
2022-10-25T00:35:24.361Z,8.63
2022-10-25T00:37:53.066Z,9.50
2022-10-25T00:40:21.145Z,9.70
2022-10-25T00:42:50.626Z,9.37
2022-10-25T00:45:24.316Z,10.27
2022-10-25T00:47:57.743Z,10.30
2022-10-25T00:50:41.278Z,9.10
2022-10-25T00:53:13.446Z,9.10
2022-10-25T00:55:45.726Z,9.67
2022-10-25T00:58:19.335Z,8.23
2022-10-25T01:00:47.738Z,9.53
2022-10-25T01:03:17.746Z,9.90
2022-10-25T01:05:47.068Z,9.77
2022-10-25T01:08:16.553Z,8.50
2022-10-25T01:10:45.017Z,9.57
2022-10-25T01:13:13.232Z,8.77
2022-10-25T01:16:01.906Z,9.73
2022-10-25T01:18:43.556Z,8.80
2022-10-25T01:21:37.276Z,10.07
2022-10-25T01:24:28.171Z,9.30
2022-10-25T01:27:31.348Z,9.83
2022-10-25T01:30:17.128Z,10.60
2022-10-25T01:32:58.316Z,10.40
2022-10-25T01:35:30.937Z,10.97
2022-10-25T01:38:21.637Z,10.00
2022-10-25T01:40:58.409Z,10.30
2022-10-25T01:43:35.211Z,10.87
2022-10-25T01:46:13.713Z,8.50
2022-10-25T01:48:47.394Z,9.43
2022-10-25T01:51:18.048Z,9.00
2022-10-25T01:53:50.702Z,9.73
2022-10-25T01:56:25.792Z,10.60
2022-10-25T01:59:21.800Z,10.53
2022-10-25T02:02:02.488Z,10.93
2022-10-25T02:04:41.665Z,9.57
2022-10-25T02:07:14.499Z,11.00
2022-10-25T02:09:50.191Z,10.03
2022-10-25T02:12:26.264Z,12.27
2022-10-25T02:15:03.977Z,14.67
2022-10-25T02:17:35.476Z,15.57
2022-10-25T02:20:08.871Z,14.30
2022-10-25T02:22:40.365Z,16.07
2022-10-25T02:25:10.755Z,14.83
2022-10-25T02:27:41.248Z,14.77
2022-10-25T02:30:10.420Z,14.47
2022-10-25T02:32:38.695Z,12.00
2022-10-25T02:35:14.450Z,11.70
2022-10-25T02:37:43.026Z,11.90
2022-10-25T02:40:12.076Z,11.10
2022-10-25T02:42:40.274Z,11.37
2022-10-25T02:45:09.499Z,10.77
2022-10-25T02:47:37.820Z,10.47
2022-10-25T02:50:07.722Z,10.93
2022-10-25T02:52:35.913Z,10.83
2022-10-25T02:55:04.050Z,13.27
2022-10-25T02:57:34.805Z,13.87
2022-10-25T03:00:03.110Z,14.67
2022-10-25T03:02:31.297Z,13.47
2022-10-25T03:04:59.557Z,14.27
2022-10-25T03:07:29.101Z,13.10
2022-10-25T03:09:57.348Z,15.07
2022-10-25T03:12:25.688Z,17.43
2022-10-25T03:14:53.780Z,16.60
2022-10-25T03:17:22.239Z,16.50
2022-10-25T03:19:50.448Z,14.80
2022-10-25T03:22:18.505Z,15.50
2022-10-25T03:24:48.255Z,14.93
2022-10-25T03:27:17.942Z,15.40
2022-10-25T03:29:46.091Z,14.90
2022-10-25T03:32:14.295Z,14.90
2022-10-25T03:34:42.352Z,14.30
2022-10-25T03:37:10.500Z,17.07
2022-10-25T03:39:38.673Z,16.77
2022-10-25T03:42:08.218Z,17.60
2022-10-25T03:44:36.310Z,18.33
2022-10-25T03:47:04.657Z,18.30
2022-10-25T03:49:32.775Z,18.90
2022-10-25T03:52:02.823Z,19.67
2022-10-25T03:54:33.065Z,19.53
2022-10-25T03:57:01.236Z,21.10
2022-10-25T03:59:31.016Z,23.87
2022-10-25T04:01:59.149Z,51.10
2022-10-25T04:04:27.321Z,42.70
2022-10-25T04:06:55.462Z,30.00
2022-10-25T04:09:24.661Z,21.70
2022-10-25T04:11:52.720Z,24.00
2022-10-25T04:14:20.822Z,23.90
2022-10-25T04:16:50.457Z,23.27
2022-10-25T04:19:18.755Z,23.43
2022-10-25T04:21:46.873Z,21.80
2022-10-25T04:24:15.050Z,22.80
2022-10-25T04:26:43.152Z,22.10
2022-10-25T04:29:13.152Z,22.07
2022-10-25T04:31:41.238Z,22.40
2022-10-25T04:34:10.750Z,23.20
2022-10-25T04:36:39.979Z,22.17
2022-10-25T04:39:08.030Z,22.93
2022-10-25T04:41:36.329Z,23.90
2022-10-25T04:44:04.496Z,22.53
2022-10-25T04:46:33.728Z,25.33
2022-10-25T04:49:01.855Z,22.27
2022-10-25T04:51:31.389Z,24.23
2022-10-25T04:53:59.694Z,22.77
2022-10-25T04:56:30.136Z,22.20
2022-10-25T04:58:59.753Z,22.33
2022-10-25T05:01:28.492Z,26.40
2022-10-25T05:03:56.667Z,24.97
2022-10-25T05:06:27.730Z,23.00
2022-10-25T05:08:57.177Z,27.53
2022-10-25T05:11:26.658Z,30.27
2022-10-25T05:13:54.808Z,33.43
2022-10-25T05:16:25.876Z,36.30
2022-10-25T05:18:55.959Z,37.97
2022-10-25T05:24:02.596Z,45.83
2022-10-25T05:26:32.359Z,45.27
2022-10-25T05:29:00.995Z,40.50
2022-10-25T05:31:30.782Z,40.30
2022-10-25T05:34:01.064Z,44.03
2022-10-25T05:36:29.766Z,42.50
2022-10-25T05:39:01.873Z,42.10
2022-10-25T05:41:33.180Z,36.57
2022-10-25T05:44:04.753Z,34.50
2022-10-25T05:46:33.541Z,27.43
2022-10-25T05:49:02.040Z,23.90
2022-10-25T05:51:36.317Z,25.63
2022-10-25T05:54:08.238Z,22.70
2022-10-25T05:56:36.858Z,27.70
2022-10-25T05:59:08.841Z,22.80
2022-10-25T06:01:38.469Z,23.83
2022-10-25T06:04:07.276Z,22.00
2022-10-25T06:06:36.258Z,19.93
2022-10-25T06:09:06.774Z,19.17
2022-10-25T06:11:35.268Z,18.20
2022-10-25T06:14:03.940Z,16.40
2022-10-25T06:16:32.544Z,16.37
2022-10-25T06:19:00.668Z,15.60
2022-10-25T06:21:30.576Z,14.20
2022-10-25T06:24:00.284Z,15.70
2022-10-25T06:26:31.350Z,15.07
2022-10-25T06:29:01.653Z,13.90
2022-10-25T06:31:30.685Z,13.97
2022-10-25T06:34:00.872Z,13.40
2022-10-25T06:36:30.588Z,15.00
2022-10-25T06:39:05.155Z,13.67
2022-10-25T06:41:37.957Z,12.30
2022-10-25T06:44:07.582Z,11.63
2022-10-25T06:47:11.508Z,11.17
2022-10-25T06:49:26.271Z,9.60
2022-10-25T06:51:54.372Z,9.83
2022-10-25T06:54:22.564Z,11.53
2022-10-25T06:56:52.094Z,9.60
2022-10-25T06:59:20.687Z,10.73
2022-10-25T07:01:50.197Z,11.60
2022-10-25T07:04:18.458Z,10.03
2022-10-25T07:06:49.969Z,10.97
2022-10-25T07:09:20.937Z,10.93
2022-10-25T07:11:49.002Z,10.80
2022-10-25T07:14:18.747Z,10.37
2022-10-25T07:16:46.928Z,11.67
2022-10-25T07:19:15.018Z,10.27
2022-10-25T07:21:43.114Z,9.13
2022-10-25T07:24:11.929Z,8.70
2022-10-25T07:26:40.462Z,8.90
2022-10-25T07:29:08.825Z,9.13
2022-10-25T07:31:41.527Z,9.20
2022-10-25T07:34:12.013Z,9.80
2022-10-25T07:36:40.345Z,9.73
2022-10-25T07:39:08.687Z,9.40
2022-10-25T07:41:36.991Z,10.17
2022-10-25T07:44:05.280Z,10.20
2022-10-25T07:46:33.354Z,10.53
2022-10-25T07:49:03.035Z,9.93
2022-10-25T07:51:31.303Z,8.90
2022-10-25T07:53:59.494Z,11.50
2022-10-25T07:56:27.640Z,9.20
2022-10-25T07:58:55.668Z,10.03
2022-10-25T08:01:26.174Z,9.80
2022-10-25T08:03:55.510Z,9.13
2022-10-25T08:06:26.355Z,9.53
2022-10-25T08:08:55.066Z,9.10
2022-10-25T08:11:23.222Z,8.47
2022-10-25T08:13:52.015Z,9.10
2022-10-25T08:16:20.142Z,9.03
2022-10-25T08:18:48.384Z,8.80
2022-10-25T08:21:16.575Z,9.60
2022-10-25T08:23:46.330Z,9.90
2022-10-25T08:26:14.625Z,11.63
2022-10-25T08:28:42.677Z,9.37
2022-10-25T08:31:10.914Z,9.50
2022-10-25T08:33:39.458Z,9.43
2022-10-25T08:36:08.221Z,9.60
2022-10-25T08:38:36.269Z,8.10
2022-10-25T08:41:12.032Z,9.10
2022-10-25T08:44:20.045Z,9.47
2022-10-25T08:46:55.874Z,9.10
2022-10-25T08:49:29.339Z,8.67
2022-10-25T08:52:00.568Z,8.33
2022-10-25T08:54:30.980Z,9.27
2022-10-25T08:57:16.831Z,9.57
2022-10-25T08:59:49.767Z,8.17
2022-10-25T09:02:24.854Z,9.70
2022-10-25T09:04:53.172Z,9.77
2022-10-25T09:07:46.811Z,10.07
2022-10-25T09:10:26.586Z,9.83
2022-10-25T09:13:08.469Z,8.63
2022-10-25T09:15:52.472Z,9.17
2022-10-25T09:18:27.068Z,9.50
2022-10-25T09:20:55.659Z,8.70
2022-10-25T09:23:30.461Z,9.50
2022-10-25T09:26:05.092Z,10.20
2022-10-25T09:28:52.445Z,9.80
2022-10-25T09:31:24.514Z,9.07
2022-10-25T09:34:04.053Z,9.70
2022-10-25T09:36:39.279Z,9.80
2022-10-25T09:39:18.277Z,9.10
2022-10-25T09:41:51.001Z,9.80
2022-10-25T09:44:32.103Z,8.60
2022-10-25T09:47:05.785Z,9.00
2022-10-25T09:49:42.029Z,10.40
2022-10-25T09:52:19.022Z,9.63
2022-10-25T09:54:52.641Z,9.00
2022-10-25T09:57:20.903Z,9.40
2022-10-25T09:59:52.867Z,8.60
2022-10-25T10:02:25.629Z,8.70
2022-10-25T10:04:55.094Z,8.50
2022-10-25T10:07:29.318Z,8.80
2022-10-25T10:10:01.499Z,9.80
2022-10-25T10:12:36.088Z,10.60
2022-10-25T10:15:14.513Z,13.60
2022-10-25T10:17:42.766Z,11.20
2022-10-25T10:20:15.782Z,10.97
2022-10-25T10:22:52.130Z,18.63
2022-10-25T10:25:23.809Z,14.63
2022-10-25T10:27:54.591Z,12.13
2022-10-25T10:30:28.892Z,12.30
2022-10-25T10:33:00.647Z,17.07
2022-10-25T10:35:34.604Z,15.50
2022-10-25T10:38:21.833Z,12.27
2022-10-25T10:40:51.715Z,9.70
2022-10-25T10:43:31.866Z,8.60
2022-10-25T10:46:06.011Z,8.90
2022-10-25T10:48:42.010Z,8.57
2022-10-25T10:51:38.851Z,9.23
2022-10-25T10:54:23.642Z,9.50
2022-10-25T10:57:00.892Z,9.57
2022-10-25T10:59:41.031Z,9.23
2022-10-25T11:02:36.867Z,9.73
2022-10-25T11:05:20.619Z,9.40
2022-10-25T11:07:56.884Z,8.70
2022-10-25T11:10:28.750Z,9.77
2022-10-25T11:13:11.563Z,9.80
2022-10-25T11:16:04.267Z,11.20
2022-10-25T11:18:47.461Z,10.10
2022-10-25T11:21:29.889Z,9.27
2022-10-25T11:24:09.536Z,8.80
2022-10-25T11:26:52.180Z,9.33
2022-10-25T11:29:33.003Z,9.17
2022-10-25T11:32:11.960Z,9.00
2022-10-25T11:34:50.300Z,9.60
2022-10-25T11:37:22.549Z,9.80
2022-10-25T11:40:04.109Z,9.03
2022-10-25T11:42:57.476Z,8.60
2022-10-25T11:45:36.648Z,9.53
2022-10-25T11:48:42.606Z,9.13
2022-10-25T11:51:25.327Z,10.80
2022-10-25T11:54:20.585Z,10.77
2022-10-25T11:57:01.515Z,10.50
2022-10-25T11:59:44.806Z,10.70
2022-10-25T12:02:34.897Z,10.70
2022-10-25T12:05:18.126Z,10.80
2022-10-25T12:07:48.920Z,11.67
2022-10-25T12:10:29.327Z,10.87
2022-10-25T12:13:02.591Z,10.73
2022-10-25T12:15:38.104Z,10.80
2022-10-25T12:18:07.863Z,11.27
2022-10-25T12:20:38.011Z,11.27
2022-10-25T12:23:10.804Z,11.60
2022-10-25T12:25:45.823Z,10.80
2022-10-25T12:28:23.720Z,11.10
2022-10-25T12:30:58.228Z,12.20
2022-10-25T12:33:35.908Z,11.63
2022-10-25T12:36:08.530Z,11.53
2022-10-25T12:38:38.768Z,11.00
2022-10-25T12:41:17.013Z,11.87
2022-10-25T12:43:54.287Z,12.63
2022-10-25T12:46:44.191Z,11.33
2022-10-25T12:49:42.883Z,11.83
2022-10-25T12:52:25.456Z,11.87
2022-10-25T12:55:30.708Z,11.27
2022-10-25T12:58:12.928Z,11.60
2022-10-25T13:00:47.746Z,11.73
2022-10-25T13:03:37.779Z,11.53
2022-10-25T13:06:26.643Z,12.97
2022-10-25T13:08:56.830Z,12.57
2022-10-25T13:11:34.962Z,11.00
2022-10-25T13:14:05.587Z,11.30
2022-10-25T13:16:36.410Z,12.00
2022-10-25T13:19:53.450Z,11.53
2022-10-25T13:22:37.495Z,12.20
2022-10-25T13:25:19.651Z,11.30
2022-10-25T13:28:31.535Z,12.67
2022-10-25T13:31:47.065Z,12.30
2022-10-25T13:34:36.689Z,12.10
2022-10-25T13:37:07.042Z,11.90
2022-10-25T13:39:39.904Z,12.57
2022-10-25T13:42:23.385Z,11.10
2022-10-25T13:44:56.867Z,13.53
2022-10-25T13:47:37.072Z,11.87
2022-10-25T13:50:20.147Z,11.90
2022-10-25T13:53:02.643Z,11.73
2022-10-25T13:55:36.729Z,11.60
2022-10-25T13:58:42.089Z,13.20
2022-10-25T14:01:55.838Z,11.27
2022-10-25T14:04:36.240Z,11.80
2022-10-25T14:07:41.729Z,12.60
2022-10-25T14:10:26.869Z,11.77
2022-10-25T14:13:08.390Z,11.73
2022-10-25T14:15:46.825Z,12.00
2022-10-25T14:18:20.668Z,13.10
2022-10-25T14:20:50.536Z,12.60
2022-10-25T14:23:23.236Z,12.47
2022-10-25T14:25:56.781Z,10.93
2022-10-25T14:28:26.882Z,11.90
2022-10-25T14:30:56.835Z,11.27
2022-10-25T14:33:27.716Z,12.17
2022-10-25T14:35:58.975Z,11.83
2022-10-25T14:38:28.723Z,11.90
2022-10-25T14:41:00.158Z,11.10
2022-10-25T14:43:30.938Z,11.53
2022-10-25T14:46:12.656Z,11.97
2022-10-25T14:48:41.776Z,12.70
2022-10-25T14:51:15.015Z,12.53
2022-10-25T14:53:54.929Z,12.97
2022-10-25T14:56:29.035Z,11.40
2022-10-25T14:58:58.029Z,12.20
2022-10-25T15:01:27.018Z,12.20
2022-10-25T15:03:58.400Z,13.47
2022-10-25T15:06:29.522Z,12.53
2022-10-25T15:09:29.135Z,13.83
2022-10-25T15:12:07.983Z,14.07
2022-10-25T15:14:37.008Z,13.20
2022-10-25T15:17:06.557Z,14.30
2022-10-25T15:19:54.723Z,13.53
2022-10-25T15:22:28.405Z,14.50
2022-10-25T15:24:57.819Z,14.97
2022-10-25T15:27:32.942Z,13.80
2022-10-25T15:30:01.046Z,13.73
2022-10-25T15:32:29.192Z,13.43
2022-10-25T15:34:59.934Z,13.70
2022-10-25T15:37:29.777Z,17.33
2022-10-25T15:39:58.715Z,16.60
2022-10-25T15:42:28.577Z,15.93
2022-10-25T15:44:56.655Z,16.00
2022-10-25T15:47:33.734Z,16.43
2022-10-25T15:50:04.591Z,14.97
2022-10-25T15:52:32.755Z,15.73
2022-10-25T15:55:00.898Z,17.80
2022-10-25T15:57:30.791Z,17.37
2022-10-25T16:00:00.279Z,18.67
2022-10-25T16:02:28.738Z,17.53
2022-10-25T16:04:57.066Z,18.70
2022-10-25T16:07:25.407Z,20.30
2022-10-25T16:09:53.538Z,27.80
2022-10-25T16:12:25.944Z,37.17
2022-10-25T16:14:55.712Z,33.90
2022-10-25T16:17:23.798Z,36.43
2022-10-25T16:19:51.933Z,35.10
2022-10-25T16:22:20.125Z,32.70
2022-10-25T16:24:48.382Z,31.13
2022-10-25T16:27:16.662Z,28.60
2022-10-25T16:29:44.780Z,27.73
2022-10-25T16:32:14.343Z,27.00
2022-10-25T16:34:46.103Z,26.53
2022-10-25T16:37:14.402Z,26.03
2022-10-25T16:39:42.603Z,24.30
2022-10-25T16:42:29.320Z,23.23
2022-10-25T16:44:57.888Z,23.80
2022-10-25T16:47:28.083Z,23.03
2022-10-25T16:49:56.346Z,23.67
2022-10-25T16:52:24.584Z,23.27
2022-10-25T16:54:53.044Z,21.60
2022-10-25T16:57:21.242Z,23.90
2022-10-25T16:59:50.689Z,24.27
2022-10-25T17:02:20.532Z,24.03
2022-10-25T17:04:50.484Z,25.57
2022-10-25T17:07:19.269Z,22.83
2022-10-25T17:09:47.338Z,20.33
2022-10-25T17:12:15.449Z,25.47
2022-10-25T17:14:43.628Z,26.33
2022-10-25T17:17:12.049Z,24.70
2022-10-25T17:19:40.143Z,22.60
2022-10-25T17:22:10.189Z,22.50
2022-10-25T17:24:38.437Z,20.53
2022-10-25T17:27:08.243Z,21.27
2022-10-25T17:29:36.324Z,21.33
2022-10-25T17:32:04.467Z,17.83
2022-10-25T17:34:32.695Z,17.00
2022-10-25T17:37:02.331Z,18.03
2022-10-25T17:39:32.041Z,15.03
2022-10-25T17:42:00.159Z,15.77
2022-10-25T17:44:28.471Z,15.03
2022-10-25T17:46:58.529Z,14.60
2022-10-25T17:49:29.217Z,15.87
2022-10-25T17:51:57.346Z,20.70
2022-10-25T17:54:25.400Z,20.20
2022-10-25T17:56:58.562Z,15.53
2022-10-25T17:59:27.829Z,16.23
2022-10-25T18:01:56.163Z,14.37
2022-10-25T18:04:25.103Z,14.53
2022-10-25T18:06:53.230Z,15.30
2022-10-25T18:09:22.935Z,14.73
2022-10-25T18:11:51.082Z,14.70
2022-10-25T18:14:20.816Z,14.53
2022-10-25T18:16:48.899Z,14.33
2022-10-25T18:19:17.222Z,15.20
2022-10-25T18:21:45.296Z,16.80
2022-10-25T18:24:14.845Z,15.80
2022-10-25T18:26:43.007Z,16.63
2022-10-25T18:29:11.156Z,15.57
2022-10-25T18:31:40.647Z,14.80
2022-10-25T18:34:08.737Z,16.70
2022-10-25T18:36:36.917Z,16.07
2022-10-25T18:39:05.507Z,16.73
2022-10-25T18:41:35.559Z,16.33
2022-10-25T18:44:03.922Z,13.47
2022-10-25T18:46:32.905Z,12.83
2022-10-25T18:49:02.637Z,12.60
2022-10-25T18:51:31.928Z,10.17
2022-10-25T18:54:01.893Z,9.10
2022-10-25T18:56:31.661Z,9.67
2022-10-25T18:59:00.311Z,10.70
2022-10-25T19:01:32.772Z,11.03
2022-10-25T19:04:05.374Z,10.80
2022-10-25T19:06:34.475Z,12.30
2022-10-25T19:09:03.998Z,10.60
2022-10-25T19:11:33.458Z,11.77
2022-10-25T19:14:03.243Z,11.13
2022-10-25T19:16:31.512Z,11.93
2022-10-25T19:19:04.647Z,13.00
2022-10-25T19:21:32.922Z,11.03
2022-10-25T19:24:01.152Z,12.63
2022-10-25T19:26:29.357Z,12.37
2022-10-25T19:28:58.765Z,11.90
2022-10-25T19:31:28.028Z,14.73
2022-10-25T19:34:00.681Z,10.63
2022-10-25T19:36:30.968Z,11.70
2022-10-25T19:38:59.498Z,10.53
2022-10-25T19:41:27.716Z,8.60
2022-10-25T19:43:57.318Z,9.53
2022-10-25T19:46:26.265Z,8.80
2022-10-25T19:48:56.313Z,7.60
2022-10-25T19:51:24.811Z,7.20
2022-10-25T19:53:54.315Z,6.27
2022-10-25T19:56:23.851Z,5.93
2022-10-25T19:58:52.304Z,6.03
2022-10-25T20:01:23.367Z,7.00
2022-10-25T20:03:54.661Z,6.80
2022-10-25T20:06:25.090Z,6.70
2022-10-25T20:08:56.158Z,5.90
2022-10-25T20:11:25.677Z,6.70
2022-10-25T20:13:58.347Z,7.23
2022-10-25T20:16:27.578Z,7.20
2022-10-25T20:18:55.869Z,6.70
2022-10-25T20:21:26.049Z,7.37
2022-10-25T20:23:57.839Z,7.37
2022-10-25T20:26:28.245Z,8.53
2022-10-25T20:28:58.416Z,6.50
2022-10-25T20:31:28.052Z,7.00
2022-10-25T20:33:56.505Z,6.97
2022-10-25T20:36:25.206Z,6.10
2022-10-25T20:38:53.509Z,7.10
2022-10-25T20:41:25.570Z,7.30
2022-10-25T20:43:55.693Z,7.03
2022-10-25T20:46:25.469Z,7.30
2022-10-25T20:48:53.892Z,8.00
2022-10-25T20:51:22.639Z,6.80
2022-10-25T20:53:50.911Z,6.60
2022-10-25T20:56:20.569Z,6.43
2022-10-25T20:58:50.802Z,7.10
2022-10-25T21:01:19.290Z,6.20
2022-10-25T21:03:47.480Z,7.67
2022-10-25T21:06:15.579Z,6.53
2022-10-25T21:08:43.729Z,7.10
2022-10-25T21:11:13.785Z,6.70
2022-10-25T21:13:42.523Z,6.53
2022-10-25T21:16:14.062Z,6.10
2022-10-25T21:18:44.084Z,6.20
2022-10-25T21:21:19.089Z,6.30
2022-10-25T21:23:48.218Z,6.47
2022-10-25T21:26:16.654Z,6.50
2022-10-25T21:28:44.847Z,6.17
2022-10-25T21:31:17.135Z,6.17
2022-10-25T21:33:49.967Z,6.13
2022-10-25T21:36:20.942Z,6.00
2022-10-25T21:38:49.243Z,6.70
2022-10-25T21:41:20.684Z,6.53
2022-10-25T21:43:50.707Z,6.50
2022-10-25T21:46:21.729Z,6.73
2022-10-25T21:48:51.493Z,5.90
2022-10-25T21:51:20.349Z,7.00
2022-10-25T21:53:49.120Z,6.67
2022-10-25T21:56:19.197Z,7.00
2022-10-25T21:58:49.041Z,7.97
2022-10-25T22:01:20.518Z,7.07
2022-10-25T22:03:48.884Z,6.63
2022-10-25T22:06:19.179Z,7.10
2022-10-25T22:08:48.511Z,6.90
2022-10-25T22:11:18.701Z,7.70
2022-10-25T22:13:47.944Z,7.80
2022-10-25T22:16:18.146Z,7.80
2022-10-25T22:18:53.788Z,7.70
2022-10-25T22:21:22.681Z,8.40
2022-10-25T22:23:51.753Z,8.17
2022-10-25T22:26:21.778Z,9.00
2022-10-25T22:28:53.440Z,7.57
2022-10-25T22:31:22.244Z,8.00
2022-10-25T22:33:56.040Z,7.20
2022-10-25T22:36:26.058Z,7.33
2022-10-25T22:38:54.440Z,8.17
2022-10-25T22:41:24.781Z,7.50
2022-10-25T22:43:53.303Z,7.60
2022-10-25T22:46:25.251Z,6.73
2022-10-25T22:48:56.800Z,7.60
2022-10-25T22:51:26.501Z,7.87
2022-10-25T22:53:55.158Z,8.87
2022-10-25T22:56:24.510Z,8.13
2022-10-25T22:58:54.237Z,7.33
2022-10-25T23:01:24.833Z,7.00
2022-10-25T23:03:56.714Z,8.30
2022-10-25T23:06:27.261Z,7.57
2022-10-25T23:08:56.622Z,7.40
2022-10-25T23:11:26.996Z,6.30
2022-10-25T23:13:55.348Z,7.17
2022-10-25T23:16:23.730Z,6.73
2022-10-25T23:18:52.244Z,7.20
2022-10-25T23:21:23.779Z,6.20
2022-10-25T23:23:53.363Z,6.47
2022-10-25T23:26:26.168Z,6.93
2022-10-25T23:28:55.311Z,6.03
2022-10-25T23:31:24.363Z,6.50
2022-10-25T23:33:53.728Z,5.90
2022-10-25T23:36:25.460Z,6.50
2022-10-25T23:38:54.884Z,5.23
2022-10-25T23:41:24.062Z,5.47
2022-10-25T23:43:52.382Z,5.67
2022-10-25T23:46:20.815Z,5.60
2022-10-25T23:48:49.268Z,5.90
2022-10-25T23:51:19.379Z,5.57
2022-10-25T23:53:48.958Z,5.60
2022-10-25T23:56:17.432Z,5.70
2022-10-25T23:58:45.569Z,5.87
